Rochford, South Dakota
Current Conditions -  °F | °C
As of 11:55 AM on Monday 20 Oct 2014 (Local Time) from KSPF Reporting Station
Clear Clear  
Wind Chill: 70°   Ceiling: Unl
Heat Index: 70°   Visibility: 10mi
Dew Point: 48°   Wind: 7mph
Humidity: 46%   Direction: 30°NNE
Pressure: 30.01"   Gusts: NA
Location:  44.12°N, 103.72°W
Report Text: KSPF 201755Z AUTO 03006KT 10SM CLR 21/09 A3001 RMK AO2
Loading
Personal Weather Stations






























Interactive Weather Map
Tropical Storm Tracking
New forecast layout! Learn more

10-Day Weather Forecast

Advertisements
Track Severe Weather on mobile